sensor_id;sensor_type;location;lat;lon;timestamp;P1;durP1;ratioP1;P2;durP2;ratioP2
23670;SDS011;12012;51.998;7.614;2023-03-05T00:01:46;14.93;;;3.22;;
23670;SDS011;12012;51.998;7.614;2023-03-05T00:04:13;16.23;;;4.13;;
23670;SDS011;12012;51.998;7.614;2023-03-05T00:06:39;15.00;;;3.42;;
23670;SDS011;12012;51.998;7.614;2023-03-05T00:09:05;14.43;;;3.67;;
23670;SDS011;12012;51.998;7.614;2023-03-05T00:11:31;16.15;;;3.50;;
23670;SDS011;12012;51.998;7.614;2023-03-05T00:13:57;15.73;;;4.53;;
23670;SDS011;12012;51.998;7.614;2023-03-05T00:16:24;16.65;;;4.00;;
23670;SDS011;12012;51.998;7.614;2023-03-05T00:18:51;18.73;;;3.70;;
23670;SDS011;12012;51.998;7.614;2023-03-05T00:23:48;16.25;;;3.90;;
23670;SDS011;12012;51.998;7.614;2023-03-05T00:26:15;10.82;;;3.03;;
23670;SDS011;12012;51.998;7.614;2023-03-05T00:28:41;16.58;;;3.08;;
23670;SDS011;12012;51.998;7.614;2023-03-05T00:31:07;16.58;;;3.35;;
23670;SDS011;12012;51.998;7.614;2023-03-05T00:33:32;16.98;;;3.33;;
23670;SDS011;12012;51.998;7.614;2023-03-05T00:36:04;15.85;;;3.03;;
23670;SDS011;12012;51.998;7.614;2023-03-05T00:38:38;16.67;;;3.25;;
23670;SDS011;12012;51.998;7.614;2023-03-05T00:41:03;17.00;;;3.40;;
23670;SDS011;12012;51.998;7.614;2023-03-05T00:43:29;16.80;;;3.50;;
23670;SDS011;12012;51.998;7.614;2023-03-05T00:45:54;16.92;;;3.17;;
23670;SDS011;12012;51.998;7.614;2023-03-05T00:48:20;20.35;;;3.83;;
23670;SDS011;12012;51.998;7.614;2023-03-05T00:50:49;12.70;;;3.58;;
23670;SDS011;12012;51.998;7.614;2023-03-05T00:53:15;19.38;;;3.80;;
23670;SDS011;12012;51.998;7.614;2023-03-05T00:55:41;15.88;;;3.80;;
23670;SDS011;12012;51.998;7.614;2023-03-05T00:58:06;16.77;;;3.40;;
23670;SDS011;12012;51.998;7.614;2023-03-05T01:00:32;20.92;;;4.65;;
23670;SDS011;12012;51.998;7.614;2023-03-05T01:02:57;15.02;;;3.50;;
23670;SDS011;12012;51.998;7.614;2023-03-05T01:05:23;16.73;;;3.50;;
23670;SDS011;12012;51.998;7.614;2023-03-05T01:07:51;15.57;;;3.63;;
23670;SDS011;12012;51.998;7.614;2023-03-05T01:10:17;17.83;;;4.10;;
23670;SDS011;12012;51.998;7.614;2023-03-05T01:12:43;14.63;;;3.78;;
23670;SDS011;12012;51.998;7.614;2023-03-05T01:15:09;24.85;;;5.00;;
23670;SDS011;12012;51.998;7.614;2023-03-05T01:17:34;24.50;;;4.43;;
23670;SDS011;12012;51.998;7.614;2023-03-05T01:20:00;18.00;;;4.18;;
23670;SDS011;12012;51.998;7.614;2023-03-05T01:22:26;13.85;;;3.95;;
23670;SDS011;12012;51.998;7.614;2023-03-05T01:24:51;14.25;;;3.28;;
23670;SDS011;12012;51.998;7.614;2023-03-05T01:27:17;12.93;;;3.72;;
23670;SDS011;12012;51.998;7.614;2023-03-05T01:29:42;17.05;;;3.50;;
23670;SDS011;12012;51.998;7.614;2023-03-05T01:32:08;16.27;;;3.78;;
23670;SDS011;12012;51.998;7.614;2023-03-05T01:34:35;13.95;;;3.30;;
23670;SDS011;12012;51.998;7.614;2023-03-05T01:37:01;17.02;;;3.70;;
23670;SDS011;12012;51.998;7.614;2023-03-05T01:39:26;13.38;;;3.40;;
23670;SDS011;12012;51.998;7.614;2023-03-05T01:41:52;13.98;;;3.53;;
23670;SDS011;12012;51.998;7.614;2023-03-05T01:44:25;18.73;;;3.78;;
23670;SDS011;12012;51.998;7.614;2023-03-05T01:46:52;14.25;;;3.50;;
23670;SDS011;12012;51.998;7.614;2023-03-05T01:52:08;16.85;;;3.65;;
23670;SDS011;12012;51.998;7.614;2023-03-05T01:54:46;17.83;;;3.55;;
23670;SDS011;12012;51.998;7.614;2023-03-05T02:00:00;18.30;;;3.60;;
23670;SDS011;12012;51.998;7.614;2023-03-05T02:02:32;12.75;;;3.28;;
23670;SDS011;12012;51.998;7.614;2023-03-05T02:05:06;12.82;;;3.65;;
23670;SDS011;12012;51.998;7.614;2023-03-05T02:07:33;16.90;;;3.33;;
23670;SDS011;12012;51.998;7.614;2023-03-05T02:10:13;16.20;;;3.65;;
23670;SDS011;12012;51.998;7.614;2023-03-05T02:12:42;14.50;;;3.55;;
23670;SDS011;12012;51.998;7.614;2023-03-05T02:15:08;19.67;;;3.65;;
23670;SDS011;12012;51.998;7.614;2023-03-05T02:17:35;10.85;;;3.20;;
23670;SDS011;12012;51.998;7.614;2023-03-05T02:20:04;12.85;;;3.22;;
23670;SDS011;12012;51.998;7.614;2023-03-05T02:22:38;13.70;;;3.05;;
23670;SDS011;12012;51.998;7.614;2023-03-05T02:27:42;13.80;;;3.33;;
23670;SDS011;12012;51.998;7.614;2023-03-05T02:30:14;14.07;;;4.00;;
23670;SDS011;12012;51.998;7.614;2023-03-05T02:32:39;12.05;;;3.80;;
23670;SDS011;12012;51.998;7.614;2023-03-05T02:35:05;13.05;;;3.22;;
23670;SDS011;12012;51.998;7.614;2023-03-05T02:37:31;12.30;;;3.63;;
23670;SDS011;12012;51.998;7.614;2023-03-05T02:39:56;9.50;;;3.15;;
23670;SDS011;12012;51.998;7.614;2023-03-05T02:42:22;10.07;;;3.75;;
23670;SDS011;12012;51.998;7.614;2023-03-05T02:44:47;15.35;;;3.53;;
23670;SDS011;12012;51.998;7.614;2023-03-05T02:47:13;14.30;;;3.55;;
23670;SDS011;12012;51.998;7.614;2023-03-05T02:49:39;12.48;;;3.42;;
23670;SDS011;12012;51.998;7.614;2023-03-05T02:52:04;14.85;;;4.30;;
23670;SDS011;12012;51.998;7.614;2023-03-05T02:54:30;9.30;;;3.05;;
23670;SDS011;12012;51.998;7.614;2023-03-05T02:56:55;10.70;;;3.75;;
23670;SDS011;12012;51.998;7.614;2023-03-05T02:59:21;14.95;;;4.00;;
23670;SDS011;12012;51.998;7.614;2023-03-05T03:01:47;12.07;;;3.75;;
23670;SDS011;12012;51.998;7.614;2023-03-05T03:04:12;13.07;;;3.50;;
23670;SDS011;12012;51.998;7.614;2023-03-05T03:06:38;12.43;;;3.33;;
23670;SDS011;12012;51.998;7.614;2023-03-05T03:09:03;10.20;;;3.40;;
23670;SDS011;12012;51.998;7.614;2023-03-05T03:11:29;13.52;;;3.08;;
23670;SDS011;12012;51.998;7.614;2023-03-05T03:13:55;17.33;;;3.60;;
23670;SDS011;12012;51.998;7.614;2023-03-05T03:16:20;14.27;;;3.00;;
23670;SDS011;12012;51.998;7.614;2023-03-05T03:18:46;12.82;;;3.67;;
23670;SDS011;12012;51.998;7.614;2023-03-05T03:21:16;7.97;;;2.67;;
23670;SDS011;12012;51.998;7.614;2023-03-05T03:23:42;12.90;;;3.22;;
23670;SDS011;12012;51.998;7.614;2023-03-05T03:26:08;10.20;;;2.92;;
23670;SDS011;12012;51.998;7.614;2023-03-05T03:28:33;10.82;;;3.22;;
23670;SDS011;12012;51.998;7.614;2023-03-05T03:30:59;16.35;;;3.20;;
23670;SDS011;12012;51.998;7.614;2023-03-05T03:33:25;15.20;;;3.70;;
23670;SDS011;12012;51.998;7.614;2023-03-05T03:35:50;13.90;;;3.20;;
23670;SDS011;12012;51.998;7.614;2023-03-05T03:38:16;10.13;;;3.35;;
23670;SDS011;12012;51.998;7.614;2023-03-05T03:40:41;9.95;;;3.60;;
23670;SDS011;12012;51.998;7.614;2023-03-05T03:43:07;13.73;;;3.78;;
23670;SDS011;12012;51.998;7.614;2023-03-05T03:45:33;12.23;;;3.92;;
23670;SDS011;12012;51.998;7.614;2023-03-05T03:47:59;15.35;;;3.88;;
23670;SDS011;12012;51.998;7.614;2023-03-05T03:50:24;11.77;;;3.47;;
23670;SDS011;12012;51.998;7.614;2023-03-05T03:52:50;9.00;;;3.33;;
23670;SDS011;12012;51.998;7.614;2023-03-05T03:55:16;13.65;;;3.55;;
23670;SDS011;12012;51.998;7.614;2023-03-05T03:57:41;19.38;;;4.25;;
23670;SDS011;12012;51.998;7.614;2023-03-05T04:00:10;12.57;;;2.90;;
23670;SDS011;12012;51.998;7.614;2023-03-05T04:02:36;12.05;;;3.00;;
23670;SDS011;12012;51.998;7.614;2023-03-05T04:05:02;16.23;;;3.78;;
23670;SDS011;12012;51.998;7.614;2023-03-05T04:07:28;13.23;;;3.25;;
23670;SDS011;12012;51.998;7.614;2023-03-05T04:09:53;10.75;;;3.13;;
23670;SDS011;12012;51.998;7.614;2023-03-05T04:12:19;13.07;;;4.10;;
23670;SDS011;12012;51.998;7.614;2023-03-05T04:14:45;14.75;;;3.80;;
23670;SDS011;12012;51.998;7.614;2023-03-05T04:17:13;14.65;;;3.97;;
23670;SDS011;12012;51.998;7.614;2023-03-05T04:19:40;13.07;;;3.45;;
23670;SDS011;12012;51.998;7.614;2023-03-05T04:22:10;14.15;;;3.50;;
23670;SDS011;12012;51.998;7.614;2023-03-05T04:24:36;16.42;;;3.90;;
23670;SDS011;12012;51.998;7.614;2023-03-05T04:27:02;11.65;;;3.58;;
23670;SDS011;12012;51.998;7.614;2023-03-05T04:29:29;9.80;;;3.75;;
23670;SDS011;12012;51.998;7.614;2023-03-05T04:31:54;17.55;;;4.75;;
23670;SDS011;12012;51.998;7.614;2023-03-05T04:34:20;14.43;;;4.28;;
23670;SDS011;12012;51.998;7.614;2023-03-05T04:36:45;16.25;;;3.83;;
23670;SDS011;12012;51.998;7.614;2023-03-05T04:39:11;13.20;;;3.83;;
23670;SDS011;12012;51.998;7.614;2023-03-05T04:41:37;9.52;;;3.40;;
23670;SDS011;12012;51.998;7.614;2023-03-05T04:44:02;17.88;;;3.50;;
23670;SDS011;12012;51.998;7.614;2023-03-05T04:46:28;9.93;;;3.22;;
23670;SDS011;12012;51.998;7.614;2023-03-05T04:48:54;13.10;;;3.60;;
23670;SDS011;12012;51.998;7.614;2023-03-05T04:51:20;8.65;;;3.30;;
23670;SDS011;12012;51.998;7.614;2023-03-05T04:53:46;13.13;;;3.60;;
23670;SDS011;12012;51.998;7.614;2023-03-05T04:56:12;7.95;;;3.08;;
23670;SDS011;12012;51.998;7.614;2023-03-05T04:58:37;15.20;;;3.60;;
23670;SDS011;12012;51.998;7.614;2023-03-05T05:01:04;16.42;;;3.95;;
23670;SDS011;12012;51.998;7.614;2023-03-05T05:03:30;10.60;;;3.17;;
23670;SDS011;12012;51.998;7.614;2023-03-05T05:05:56;18.02;;;3.47;;
23670;SDS011;12012;51.998;7.614;2023-03-05T05:08:23;15.63;;;3.50;;
23670;SDS011;12012;51.998;7.614;2023-03-05T05:10:59;13.68;;;3.33;;
23670;SDS011;12012;51.998;7.614;2023-03-05T05:13:27;10.60;;;2.92;;
23670;SDS011;12012;51.998;7.614;2023-03-05T05:15:54;7.28;;;2.53;;
23670;SDS011;12012;51.998;7.614;2023-03-05T05:18:19;8.70;;;3.03;;
23670;SDS011;12012;51.998;7.614;2023-03-05T05:20:45;15.57;;;3.28;;
23670;SDS011;12012;51.998;7.614;2023-03-05T05:23:12;6.68;;;2.75;;
23670;SDS011;12012;51.998;7.614;2023-03-05T05:25:38;7.80;;;2.42;;
23670;SDS011;12012;51.998;7.614;2023-03-05T05:28:03;10.45;;;2.72;;
23670;SDS011;12012;51.998;7.614;2023-03-05T05:30:29;12.50;;;2.70;;
23670;SDS011;12012;51.998;7.614;2023-03-05T05:32:55;10.30;;;3.50;;
23670;SDS011;12012;51.998;7.614;2023-03-05T05:35:20;8.95;;;2.55;;
23670;SDS011;12012;51.998;7.614;2023-03-05T05:37:46;7.57;;;3.08;;
23670;SDS011;12012;51.998;7.614;2023-03-05T05:40:12;12.10;;;3.03;;
23670;SDS011;12012;51.998;7.614;2023-03-05T05:42:38;9.90;;;2.88;;
23670;SDS011;12012;51.998;7.614;2023-03-05T05:45:03;10.50;;;3.50;;
23670;SDS011;12012;51.998;7.614;2023-03-05T05:47:29;10.10;;;3.08;;
23670;SDS011;12012;51.998;7.614;2023-03-05T05:49:55;10.25;;;3.33;;
23670;SDS011;12012;51.998;7.614;2023-03-05T05:52:21;11.27;;;3.05;;
23670;SDS011;12012;51.998;7.614;2023-03-05T05:54:46;13.00;;;4.35;;
23670;SDS011;12012;51.998;7.614;2023-03-05T05:57:12;8.18;;;3.00;;
23670;SDS011;12012;51.998;7.614;2023-03-05T05:59:38;8.07;;;2.72;;
23670;SDS011;12012;51.998;7.614;2023-03-05T06:02:05;10.13;;;3.10;;
23670;SDS011;12012;51.998;7.614;2023-03-05T06:04:32;16.13;;;4.05;;
23670;SDS011;12012;51.998;7.614;2023-03-05T06:06:58;9.88;;;3.25;;
23670;SDS011;12012;51.998;7.614;2023-03-05T06:09:24;14.07;;;3.53;;
23670;SDS011;12012;51.998;7.614;2023-03-05T06:11:50;11.43;;;3.78;;
23670;SDS011;12012;51.998;7.614;2023-03-05T06:14:15;10.52;;;3.33;;
23670;SDS011;12012;51.998;7.614;2023-03-05T06:16:41;13.07;;;3.53;;
23670;SDS011;12012;51.998;7.614;2023-03-05T06:19:13;9.73;;;3.25;;
23670;SDS011;12012;51.998;7.614;2023-03-05T06:21:40;9.88;;;4.20;;
23670;SDS011;12012;51.998;7.614;2023-03-05T06:24:07;11.23;;;3.70;;
23670;SDS011;12012;51.998;7.614;2023-03-05T06:26:33;10.48;;;4.32;;
23670;SDS011;12012;51.998;7.614;2023-03-05T06:29:00;10.15;;;3.72;;
23670;SDS011;12012;51.998;7.614;2023-03-05T06:31:26;13.40;;;4.43;;
23670;SDS011;12012;51.998;7.614;2023-03-05T06:33:53;11.20;;;4.13;;
23670;SDS011;12012;51.998;7.614;2023-03-05T06:36:21;13.73;;;4.00;;
23670;SDS011;12012;51.998;7.614;2023-03-05T06:38:48;13.20;;;3.97;;
23670;SDS011;12012;51.998;7.614;2023-03-05T06:41:18;13.60;;;4.00;;
23670;SDS011;12012;51.998;7.614;2023-03-05T06:43:46;6.50;;;3.30;;
23670;SDS011;12012;51.998;7.614;2023-03-05T06:46:19;14.88;;;3.60;;
23670;SDS011;12012;51.998;7.614;2023-03-05T06:48:46;11.07;;;3.70;;
23670;SDS011;12012;51.998;7.614;2023-03-05T06:53:45;14.65;;;4.25;;
23670;SDS011;12012;51.998;7.614;2023-03-05T06:56:12;11.32;;;4.20;;
23670;SDS011;12012;51.998;7.614;2023-03-05T06:58:40;13.73;;;3.95;;
23670;SDS011;12012;51.998;7.614;2023-03-05T07:01:06;6.93;;;3.75;;
23670;SDS011;12012;51.998;7.614;2023-03-05T07:03:32;6.40;;;3.55;;
23670;SDS011;12012;51.998;7.614;2023-03-05T07:06:03;8.82;;;3.50;;
23670;SDS011;12012;51.998;7.614;2023-03-05T07:08:29;11.23;;;3.50;;
23670;SDS011;12012;51.998;7.614;2023-03-05T07:10:55;7.88;;;3.53;;
23670;SDS011;12012;51.998;7.614;2023-03-05T07:13:21;10.05;;;4.35;;
23670;SDS011;12012;51.998;7.614;2023-03-05T07:15:46;10.85;;;3.80;;
23670;SDS011;12012;51.998;7.614;2023-03-05T07:18:12;7.95;;;4.10;;
23670;SDS011;12012;51.998;7.614;2023-03-05T07:20:37;10.23;;;3.80;;
23670;SDS011;12012;51.998;7.614;2023-03-05T07:23:03;7.78;;;4.05;;
23670;SDS011;12012;51.998;7.614;2023-03-05T07:25:29;7.15;;;3.50;;
23670;SDS011;12012;51.998;7.614;2023-03-05T07:27:55;5.05;;;3.70;;
23670;SDS011;12012;51.998;7.614;2023-03-05T07:30:21;8.77;;;3.88;;
23670;SDS011;12012;51.998;7.614;2023-03-05T07:32:46;9.80;;;3.78;;
23670;SDS011;12012;51.998;7.614;2023-03-05T07:35:12;7.93;;;3.42;;
23670;SDS011;12012;51.998;7.614;2023-03-05T07:37:38;6.80;;;3.40;;
23670;SDS011;12012;51.998;7.614;2023-03-05T07:40:04;9.00;;;4.07;;
23670;SDS011;12012;51.998;7.614;2023-03-05T07:42:30;9.98;;;4.32;;
23670;SDS011;12012;51.998;7.614;2023-03-05T07:44:56;9.00;;;3.88;;
23670;SDS011;12012;51.998;7.614;2023-03-05T07:47:21;6.40;;;3.45;;
23670;SDS011;12012;51.998;7.614;2023-03-05T07:49:47;8.20;;;3.40;;
23670;SDS011;12012;51.998;7.614;2023-03-05T07:52:14;7.13;;;3.50;;
23670;SDS011;12012;51.998;7.614;2023-03-05T07:54:39;6.85;;;3.38;;
23670;SDS011;12012;51.998;7.614;2023-03-05T07:57:06;6.47;;;2.88;;
23670;SDS011;12012;51.998;7.614;2023-03-05T07:59:33;7.65;;;3.00;;
23670;SDS011;12012;51.998;7.614;2023-03-05T08:01:58;10.07;;;3.30;;
23670;SDS011;12012;51.998;7.614;2023-03-05T08:04:24;9.95;;;2.70;;
23670;SDS011;12012;51.998;7.614;2023-03-05T08:06:50;5.80;;;2.50;;
23670;SDS011;12012;51.998;7.614;2023-03-05T08:09:16;6.22;;;2.60;;
23670;SDS011;12012;51.998;7.614;2023-03-05T08:11:42;7.18;;;2.88;;
23670;SDS011;12012;51.998;7.614;2023-03-05T08:14:08;4.70;;;2.55;;
23670;SDS011;12012;51.998;7.614;2023-03-05T08:16:35;8.02;;;2.70;;
23670;SDS011;12012;51.998;7.614;2023-03-05T08:19:02;6.10;;;2.40;;
23670;SDS011;12012;51.998;7.614;2023-03-05T08:21:29;4.15;;;2.33;;
23670;SDS011;12012;51.998;7.614;2023-03-05T08:24:00;4.75;;;2.88;;
23670;SDS011;12012;51.998;7.614;2023-03-05T08:26:28;4.78;;;2.80;;
23670;SDS011;12012;51.998;7.614;2023-03-05T08:28:54;5.80;;;2.92;;
23670;SDS011;12012;51.998;7.614;2023-03-05T08:31:21;4.93;;;2.60;;
23670;SDS011;12012;51.998;7.614;2023-03-05T08:33:49;7.47;;;2.92;;
23670;SDS011;12012;51.998;7.614;2023-03-05T08:36:15;7.22;;;2.92;;
23670;SDS011;12012;51.998;7.614;2023-03-05T08:38:41;8.35;;;3.38;;
23670;SDS011;12012;51.998;7.614;2023-03-05T08:41:08;8.02;;;3.20;;
23670;SDS011;12012;51.998;7.614;2023-03-05T08:43:34;6.28;;;2.75;;
23670;SDS011;12012;51.998;7.614;2023-03-05T08:45:59;6.03;;;3.05;;
23670;SDS011;12012;51.998;7.614;2023-03-05T08:48:26;6.50;;;2.65;;
23670;SDS011;12012;51.998;7.614;2023-03-05T08:50:52;5.32;;;2.85;;
23670;SDS011;12012;51.998;7.614;2023-03-05T08:53:18;7.22;;;3.00;;
23670;SDS011;12012;51.998;7.614;2023-03-05T08:55:52;7.15;;;2.60;;
23670;SDS011;12012;51.998;7.614;2023-03-05T08:58:19;7.35;;;2.50;;
23670;SDS011;12012;51.998;7.614;2023-03-05T09:00:44;6.88;;;2.70;;
23670;SDS011;12012;51.998;7.614;2023-03-05T09:03:10;7.15;;;3.25;;
23670;SDS011;12012;51.998;7.614;2023-03-05T09:05:35;8.18;;;2.80;;
23670;SDS011;12012;51.998;7.614;2023-03-05T09:08:01;9.10;;;3.08;;
23670;SDS011;12012;51.998;7.614;2023-03-05T09:10:26;6.20;;;2.67;;
23670;SDS011;12012;51.998;7.614;2023-03-05T09:12:52;6.13;;;2.55;;
23670;SDS011;12012;51.998;7.614;2023-03-05T09:15:17;7.03;;;2.80;;
23670;SDS011;12012;51.998;7.614;2023-03-05T09:17:43;6.20;;;2.40;;
23670;SDS011;12012;51.998;7.614;2023-03-05T09:20:10;6.95;;;2.47;;
23670;SDS011;12012;51.998;7.614;2023-03-05T09:22:37;7.40;;;3.00;;
23670;SDS011;12012;51.998;7.614;2023-03-05T09:25:02;6.07;;;2.70;;
23670;SDS011;12012;51.998;7.614;2023-03-05T09:27:31;6.82;;;2.40;;
23670;SDS011;12012;51.998;7.614;2023-03-05T09:29:58;8.75;;;2.70;;
23670;SDS011;12012;51.998;7.614;2023-03-05T09:32:23;6.15;;;2.30;;
23670;SDS011;12012;51.998;7.614;2023-03-05T09:34:49;8.20;;;2.95;;
23670;SDS011;12012;51.998;7.614;2023-03-05T09:37:16;5.72;;;2.65;;
23670;SDS011;12012;51.998;7.614;2023-03-05T09:39:41;8.70;;;3.03;;
23670;SDS011;12012;51.998;7.614;2023-03-05T09:48:15;6.00;;;2.63;;
23670;SDS011;12012;51.998;7.614;2023-03-05T09:51:06;4.32;;;2.40;;
23670;SDS011;12012;51.998;7.614;2023-03-05T09:53:48;6.30;;;2.35;;
23670;SDS011;12012;51.998;7.614;2023-03-05T09:56:31;5.78;;;2.75;;
23670;SDS011;12012;51.998;7.614;2023-03-05T09:59:13;7.50;;;2.47;;
23670;SDS011;12012;51.998;7.614;2023-03-05T10:01:52;8.43;;;2.50;;
23670;SDS011;12012;51.998;7.614;2023-03-05T10:04:46;5.85;;;2.22;;
23670;SDS011;12012;51.998;7.614;2023-03-05T10:07:18;6.25;;;2.63;;
23670;SDS011;12012;51.998;7.614;2023-03-05T10:14:57;7.68;;;2.17;;
23670;SDS011;12012;51.998;7.614;2023-03-05T10:23:22;5.47;;;1.77;;
23670;SDS011;12012;51.998;7.614;2023-03-05T10:37:19;4.28;;;1.67;;
23670;SDS011;12012;51.998;7.614;2023-03-05T10:39:58;4.55;;;2.03;;
23670;SDS011;12012;51.998;7.614;2023-03-05T10:45:20;3.63;;;1.00;;
23670;SDS011;12012;51.998;7.614;2023-03-05T10:51:03;6.35;;;1.35;;
23670;SDS011;12012;51.998;7.614;2023-03-05T10:53:55;3.13;;;1.40;;
23670;SDS011;12012;51.998;7.614;2023-03-05T10:56:24;8.63;;;2.63;;
23670;SDS011;12012;51.998;7.614;2023-03-05T10:58:51;6.00;;;1.98;;
23670;SDS011;12012;51.998;7.614;2023-03-05T11:01:18;6.90;;;1.90;;
23670;SDS011;12012;51.998;7.614;2023-03-05T11:06:30;4.63;;;1.40;;
23670;SDS011;12012;51.998;7.614;2023-03-05T11:11:44;6.30;;;1.52;;
23670;SDS011;12012;51.998;7.614;2023-03-05T11:14:33;4.78;;;1.52;;
23670;SDS011;12012;51.998;7.614;2023-03-05T11:17:10;4.15;;;1.40;;
23670;SDS011;12012;51.998;7.614;2023-03-05T11:19:49;6.43;;;1.52;;
23670;SDS011;12012;51.998;7.614;2023-03-05T11:27:41;6.18;;;1.35;;
23670;SDS011;12012;51.998;7.614;2023-03-05T11:30:27;3.25;;;0.98;;
23670;SDS011;12012;51.998;7.614;2023-03-05T11:35:33;3.42;;;1.30;;
23670;SDS011;12012;51.998;7.614;2023-03-05T11:38:05;3.35;;;1.00;;
23670;SDS011;12012;51.998;7.614;2023-03-05T11:40:38;2.58;;;1.10;;
23670;SDS011;12012;51.998;7.614;2023-03-05T11:43:04;4.43;;;1.13;;
23670;SDS011;12012;51.998;7.614;2023-03-05T11:45:30;4.22;;;1.25;;
23670;SDS011;12012;51.998;7.614;2023-03-05T11:48:11;2.75;;;1.00;;
23670;SDS011;12012;51.998;7.614;2023-03-05T11:50:43;5.43;;;1.20;;
23670;SDS011;12012;51.998;7.614;2023-03-05T11:53:17;3.13;;;1.00;;
23670;SDS011;12012;51.998;7.614;2023-03-05T11:55:48;3.30;;;1.17;;
23670;SDS011;12012;51.998;7.614;2023-03-05T11:58:23;1.77;;;0.98;;
23670;SDS011;12012;51.998;7.614;2023-03-05T12:00:54;4.50;;;1.15;;
23670;SDS011;12012;51.998;7.614;2023-03-05T12:03:28;3.78;;;1.20;;
23670;SDS011;12012;51.998;7.614;2023-03-05T12:05:59;3.92;;;1.17;;
23670;SDS011;12012;51.998;7.614;2023-03-05T12:08:34;3.17;;;1.05;;
23670;SDS011;12012;51.998;7.614;2023-03-05T12:11:14;3.50;;;1.05;;
23670;SDS011;12012;51.998;7.614;2023-03-05T12:19:00;1.95;;;0.90;;
23670;SDS011;12012;51.998;7.614;2023-03-05T12:21:35;3.03;;;0.80;;
23670;SDS011;12012;51.998;7.614;2023-03-05T12:29:27;3.92;;;0.80;;
23670;SDS011;12012;51.998;7.614;2023-03-05T12:31:55;4.50;;;1.20;;
23670;SDS011;12012;51.998;7.614;2023-03-05T12:37:09;3.15;;;1.52;;
23670;SDS011;12012;51.998;7.614;2023-03-05T12:47:39;2.72;;;1.23;;
23670;SDS011;12012;51.998;7.614;2023-03-05T13:03:16;5.85;;;1.25;;
23670;SDS011;12012;51.998;7.614;2023-03-05T13:05:48;3.08;;;1.00;;
23670;SDS011;12012;51.998;7.614;2023-03-05T13:08:21;3.72;;;0.90;;
23670;SDS011;12012;51.998;7.614;2023-03-05T13:10:53;1.95;;;1.10;;
23670;SDS011;12012;51.998;7.614;2023-03-05T13:13:43;4.30;;;1.00;;
23670;SDS011;12012;51.998;7.614;2023-03-05T13:16:17;4.15;;;1.25;;
23670;SDS011;12012;51.998;7.614;2023-03-05T13:18:45;2.10;;;1.23;;
23670;SDS011;12012;51.998;7.614;2023-03-05T13:21:13;1.52;;;0.73;;
23670;SDS011;12012;51.998;7.614;2023-03-05T13:23:49;1.92;;;0.90;;
23670;SDS011;12012;51.998;7.614;2023-03-05T13:26:22;3.13;;;0.90;;
23670;SDS011;12012;51.998;7.614;2023-03-05T13:34:23;2.80;;;1.00;;
23670;SDS011;12012;51.998;7.614;2023-03-05T13:39:17;1.67;;;0.70;;
23670;SDS011;12012;51.998;7.614;2023-03-05T13:44:40;3.67;;;1.27;;
23670;SDS011;12012;51.998;7.614;2023-03-05T13:49:40;2.90;;;1.50;;
23670;SDS011;12012;51.998;7.614;2023-03-05T13:52:07;3.15;;;1.10;;
23670;SDS011;12012;51.998;7.614;2023-03-05T13:54:39;5.35;;;0.98;;
23670;SDS011;12012;51.998;7.614;2023-03-05T13:57:06;1.88;;;0.98;;
23670;SDS011;12012;51.998;7.614;2023-03-05T13:59:51;3.22;;;1.10;;
23670;SDS011;12012;51.998;7.614;2023-03-05T14:02:18;1.70;;;0.85;;
23670;SDS011;12012;51.998;7.614;2023-03-05T14:04:45;1.50;;;0.80;;
23670;SDS011;12012;51.998;7.614;2023-03-05T14:09:47;2.38;;;1.17;;
23670;SDS011;12012;51.998;7.614;2023-03-05T14:12:33;4.47;;;1.13;;
23670;SDS011;12012;51.998;7.614;2023-03-05T14:15:21;3.75;;;1.15;;
23670;SDS011;12012;51.998;7.614;2023-03-05T14:20:37;3.33;;;0.90;;
23670;SDS011;12012;51.998;7.614;2023-03-05T14:23:23;1.95;;;0.98;;
23670;SDS011;12012;51.998;7.614;2023-03-05T14:25:51;3.05;;;1.10;;
23670;SDS011;12012;51.998;7.614;2023-03-05T14:30:46;3.05;;;0.90;;
23670;SDS011;12012;51.998;7.614;2023-03-05T14:33:14;2.25;;;1.10;;
23670;SDS011;12012;51.998;7.614;2023-03-05T14:35:56;1.92;;;0.93;;
23670;SDS011;12012;51.998;7.614;2023-03-05T14:38:25;2.47;;;0.88;;
23670;SDS011;12012;51.998;7.614;2023-03-05T14:40:53;2.92;;;1.15;;
23670;SDS011;12012;51.998;7.614;2023-03-05T14:43:19;3.20;;;1.00;;
23670;SDS011;12012;51.998;7.614;2023-03-05T14:45:45;2.13;;;0.90;;
23670;SDS011;12012;51.998;7.614;2023-03-05T14:48:12;2.67;;;1.00;;
23670;SDS011;12012;51.998;7.614;2023-03-05T14:50:44;2.88;;;1.17;;
23670;SDS011;12012;51.998;7.614;2023-03-05T14:53:23;4.15;;;1.17;;
23670;SDS011;12012;51.998;7.614;2023-03-05T14:58:24;3.80;;;1.00;;
23670;SDS011;12012;51.998;7.614;2023-03-05T15:00:56;2.75;;;1.30;;
23670;SDS011;12012;51.998;7.614;2023-03-05T15:03:22;3.97;;;1.60;;
23670;SDS011;12012;51.998;7.614;2023-03-05T15:05:50;3.72;;;1.55;;
23670;SDS011;12012;51.998;7.614;2023-03-05T15:08:21;4.20;;;1.17;;
23670;SDS011;12012;51.998;7.614;2023-03-05T15:13:16;4.15;;;1.92;;
23670;SDS011;12012;51.998;7.614;2023-03-05T15:15:42;3.97;;;1.08;;
23670;SDS011;12012;51.998;7.614;2023-03-05T15:18:09;2.60;;;1.38;;
23670;SDS011;12012;51.998;7.614;2023-03-05T15:20:37;3.75;;;1.02;;
23670;SDS011;12012;51.998;7.614;2023-03-05T15:23:03;4.18;;;1.33;;
23670;SDS011;12012;51.998;7.614;2023-03-05T15:25:29;3.80;;;1.30;;
23670;SDS011;12012;51.998;7.614;2023-03-05T15:27:55;4.57;;;1.70;;
23670;SDS011;12012;51.998;7.614;2023-03-05T15:30:34;3.97;;;1.85;;
23670;SDS011;12012;51.998;7.614;2023-03-05T15:33:03;5.80;;;1.55;;
23670;SDS011;12012;51.998;7.614;2023-03-05T15:35:31;4.63;;;1.60;;
23670;SDS011;12012;51.998;7.614;2023-03-05T15:37:57;4.03;;;1.80;;
23670;SDS011;12012;51.998;7.614;2023-03-05T15:40:23;3.47;;;1.42;;
23670;SDS011;12012;51.998;7.614;2023-03-05T15:42:51;7.90;;;1.92;;
23670;SDS011;12012;51.998;7.614;2023-03-05T15:45:17;4.63;;;1.65;;
23670;SDS011;12012;51.998;7.614;2023-03-05T15:47:43;6.68;;;2.33;;
23670;SDS011;12012;51.998;7.614;2023-03-05T15:50:09;4.00;;;1.60;;
23670;SDS011;12012;51.998;7.614;2023-03-05T15:52:35;4.50;;;1.77;;
23670;SDS011;12012;51.998;7.614;2023-03-05T15:55:01;5.65;;;1.70;;
23670;SDS011;12012;51.998;7.614;2023-03-05T15:57:26;3.88;;;1.40;;
23670;SDS011;12012;51.998;7.614;2023-03-05T15:59:52;4.70;;;1.45;;
23670;SDS011;12012;51.998;7.614;2023-03-05T16:02:18;4.25;;;1.55;;
23670;SDS011;12012;51.998;7.614;2023-03-05T16:04:44;3.83;;;1.70;;
23670;SDS011;12012;51.998;7.614;2023-03-05T16:07:10;6.53;;;1.80;;
23670;SDS011;12012;51.998;7.614;2023-03-05T16:09:38;3.67;;;1.98;;
23670;SDS011;12012;51.998;7.614;2023-03-05T16:12:08;6.30;;;2.03;;
23670;SDS011;12012;51.998;7.614;2023-03-05T16:14:36;5.88;;;3.10;;
23670;SDS011;12012;51.998;7.614;2023-03-05T16:17:04;5.63;;;2.25;;
23670;SDS011;12012;51.998;7.614;2023-03-05T16:19:30;3.65;;;1.88;;
23670;SDS011;12012;51.998;7.614;2023-03-05T16:21:59;5.13;;;2.20;;
23670;SDS011;12012;51.998;7.614;2023-03-05T16:24:24;5.95;;;1.92;;
23670;SDS011;12012;51.998;7.614;2023-03-05T16:26:50;8.00;;;2.40;;
23670;SDS011;12012;51.998;7.614;2023-03-05T16:29:16;6.47;;;1.92;;
23670;SDS011;12012;51.998;7.614;2023-03-05T16:31:41;4.00;;;1.75;;
23670;SDS011;12012;51.998;7.614;2023-03-05T16:34:09;5.53;;;2.13;;
23670;SDS011;12012;51.998;7.614;2023-03-05T16:36:38;5.63;;;1.80;;
23670;SDS011;12012;51.998;7.614;2023-03-05T16:39:05;5.60;;;2.15;;
23670;SDS011;12012;51.998;7.614;2023-03-05T16:41:30;3.28;;;2.00;;
23670;SDS011;12012;51.998;7.614;2023-03-05T16:43:57;5.20;;;2.10;;
23670;SDS011;12012;51.998;7.614;2023-03-05T16:46:23;7.90;;;2.70;;
23670;SDS011;12012;51.998;7.614;2023-03-05T16:48:50;10.27;;;2.83;;
23670;SDS011;12012;51.998;7.614;2023-03-05T16:51:16;9.27;;;2.67;;